sensor_id;sensor_type;location;lat;lon;timestamp;P1;durP1;ratioP1;P2;durP2;ratioP2
69053;SDS011;56125;52.242;4.756;2024-02-28T00:01:08;3.00;;;1.80;;
69053;SDS011;56125;52.242;4.756;2024-02-28T00:06:09;3.63;;;1.87;;
69053;SDS011;56125;52.242;4.756;2024-02-28T00:11:10;3.65;;;1.80;;
69053;SDS011;56125;52.242;4.756;2024-02-28T00:16:11;4.43;;;2.07;;
69053;SDS011;56125;52.242;4.756;2024-02-28T00:21:12;3.00;;;2.20;;
69053;SDS011;56125;52.242;4.756;2024-02-28T00:26:13;2.57;;;1.90;;
69053;SDS011;56125;52.242;4.756;2024-02-28T00:31:14;3.17;;;2.13;;
69053;SDS011;56125;52.242;4.756;2024-02-28T00:36:15;3.73;;;2.00;;
69053;SDS011;56125;52.242;4.756;2024-02-28T00:41:17;2.67;;;1.95;;
69053;SDS011;56125;52.242;4.756;2024-02-28T00:46:18;3.00;;;1.93;;
69053;SDS011;56125;52.242;4.756;2024-02-28T00:51:19;3.17;;;1.88;;
69053;SDS011;56125;52.242;4.756;2024-02-28T00:56:20;2.73;;;1.70;;
69053;SDS011;56125;52.242;4.756;2024-02-28T01:01:21;3.15;;;2.10;;
69053;SDS011;56125;52.242;4.756;2024-02-28T01:06:23;2.80;;;1.97;;
69053;SDS011;56125;52.242;4.756;2024-02-28T01:11:24;3.97;;;2.08;;
69053;SDS011;56125;52.242;4.756;2024-02-28T01:16:25;2.87;;;1.87;;
69053;SDS011;56125;52.242;4.756;2024-02-28T01:21:26;2.70;;;1.80;;
69053;SDS011;56125;52.242;4.756;2024-02-28T01:26:27;2.37;;;1.63;;
69053;SDS011;56125;52.242;4.756;2024-02-28T01:31:28;3.08;;;1.88;;
69053;SDS011;56125;52.242;4.756;2024-02-28T01:36:29;3.27;;;2.10;;
69053;SDS011;56125;52.242;4.756;2024-02-28T01:41:30;3.72;;;2.28;;
69053;SDS011;56125;52.242;4.756;2024-02-28T01:46:31;2.40;;;2.00;;
69053;SDS011;56125;52.242;4.756;2024-02-28T01:51:32;3.60;;;1.98;;
69053;SDS011;56125;52.242;4.756;2024-02-28T01:56:34;3.97;;;2.00;;
69053;SDS011;56125;52.242;4.756;2024-02-28T02:01:36;3.33;;;2.08;;
69053;SDS011;56125;52.242;4.756;2024-02-28T02:06:38;2.37;;;1.93;;
69053;SDS011;56125;52.242;4.756;2024-02-28T02:11:43;2.15;;;1.77;;
69053;SDS011;56125;52.242;4.756;2024-02-28T02:16:44;2.00;;;1.73;;
69053;SDS011;56125;52.242;4.756;2024-02-28T02:22:03;3.03;;;2.13;;
69053;SDS011;56125;52.242;4.756;2024-02-28T02:27:08;2.50;;;1.90;;
69053;SDS011;56125;52.242;4.756;2024-02-28T02:32:09;3.20;;;1.98;;
69053;SDS011;56125;52.242;4.756;2024-02-28T02:37:10;3.47;;;1.90;;
69053;SDS011;56125;52.242;4.756;2024-02-28T02:42:11;2.65;;;1.75;;
69053;SDS011;56125;52.242;4.756;2024-02-28T02:47:15;3.03;;;1.80;;
69053;SDS011;56125;52.242;4.756;2024-02-28T02:52:16;3.08;;;2.15;;
69053;SDS011;56125;52.242;4.756;2024-02-28T02:57:17;2.53;;;1.53;;
69053;SDS011;56125;52.242;4.756;2024-02-28T03:02:18;2.95;;;2.15;;
69053;SDS011;56125;52.242;4.756;2024-02-28T03:07:19;1.93;;;1.63;;
69053;SDS011;56125;52.242;4.756;2024-02-28T03:12:20;2.35;;;1.35;;
69053;SDS011;56125;52.242;4.756;2024-02-28T03:17:22;2.00;;;1.63;;
69053;SDS011;56125;52.242;4.756;2024-02-28T03:22:23;2.92;;;1.65;;
69053;SDS011;56125;52.242;4.756;2024-02-28T03:27:24;2.03;;;1.60;;
69053;SDS011;56125;52.242;4.756;2024-02-28T03:32:25;2.08;;;1.70;;
69053;SDS011;56125;52.242;4.756;2024-02-28T03:37:26;3.17;;;1.37;;
69053;SDS011;56125;52.242;4.756;2024-02-28T03:42:27;1.98;;;1.58;;
69053;SDS011;56125;52.242;4.756;2024-02-28T03:47:28;2.07;;;1.50;;
69053;SDS011;56125;52.242;4.756;2024-02-28T03:52:29;1.70;;;1.50;;
69053;SDS011;56125;52.242;4.756;2024-02-28T03:57:31;1.63;;;1.40;;
69053;SDS011;56125;52.242;4.756;2024-02-28T04:02:32;2.70;;;1.40;;
69053;SDS011;56125;52.242;4.756;2024-02-28T04:07:33;3.57;;;1.80;;
69053;SDS011;56125;52.242;4.756;2024-02-28T04:12:34;2.22;;;1.33;;
69053;SDS011;56125;52.242;4.756;2024-02-28T04:17:36;2.63;;;1.50;;
69053;SDS011;56125;52.242;4.756;2024-02-28T04:22:37;2.53;;;1.95;;
69053;SDS011;56125;52.242;4.756;2024-02-28T04:27:38;1.67;;;1.57;;
69053;SDS011;56125;52.242;4.756;2024-02-28T04:32:39;2.47;;;1.80;;
69053;SDS011;56125;52.242;4.756;2024-02-28T04:37:40;3.27;;;1.87;;
69053;SDS011;56125;52.242;4.756;2024-02-28T04:42:42;2.00;;;1.73;;
69053;SDS011;56125;52.242;4.756;2024-02-28T04:47:45;2.10;;;1.57;;
69053;SDS011;56125;52.242;4.756;2024-02-28T04:52:46;3.00;;;1.55;;
69053;SDS011;56125;52.242;4.756;2024-02-28T04:57:48;1.97;;;1.63;;
69053;SDS011;56125;52.242;4.756;2024-02-28T05:02:49;3.40;;;1.83;;
69053;SDS011;56125;52.242;4.756;2024-02-28T05:07:50;1.70;;;1.47;;
69053;SDS011;56125;52.242;4.756;2024-02-28T05:12:51;2.33;;;1.80;;
69053;SDS011;56125;52.242;4.756;2024-02-28T05:17:52;2.63;;;1.70;;
69053;SDS011;56125;52.242;4.756;2024-02-28T05:22:53;2.00;;;1.80;;
69053;SDS011;56125;52.242;4.756;2024-02-28T05:27:54;2.47;;;1.67;;
69053;SDS011;56125;52.242;4.756;2024-02-28T05:32:55;1.75;;;1.50;;
69053;SDS011;56125;52.242;4.756;2024-02-28T05:37:56;2.97;;;1.80;;
69053;SDS011;56125;52.242;4.756;2024-02-28T05:42:58;5.13;;;1.70;;
69053;SDS011;56125;52.242;4.756;2024-02-28T05:47:59;1.97;;;1.47;;
69053;SDS011;56125;52.242;4.756;2024-02-28T05:53:00;2.90;;;1.70;;
69053;SDS011;56125;52.242;4.756;2024-02-28T05:58:01;2.30;;;1.70;;
69053;SDS011;56125;52.242;4.756;2024-02-28T06:03:02;2.00;;;1.80;;
69053;SDS011;56125;52.242;4.756;2024-02-28T06:08:03;1.83;;;1.63;;
69053;SDS011;56125;52.242;4.756;2024-02-28T06:13:05;2.15;;;1.80;;
69053;SDS011;56125;52.242;4.756;2024-02-28T06:18:06;4.20;;;1.70;;
69053;SDS011;56125;52.242;4.756;2024-02-28T06:23:07;2.45;;;1.73;;
69053;SDS011;56125;52.242;4.756;2024-02-28T06:28:10;3.77;;;1.77;;
69053;SDS011;56125;52.242;4.756;2024-02-28T06:33:12;2.95;;;2.10;;
69053;SDS011;56125;52.242;4.756;2024-02-28T06:38:13;4.13;;;2.00;;
69053;SDS011;56125;52.242;4.756;2024-02-28T06:43:14;4.18;;;2.30;;
69053;SDS011;56125;52.242;4.756;2024-02-28T06:48:16;5.10;;;2.07;;
69053;SDS011;56125;52.242;4.756;2024-02-28T06:53:17;5.97;;;2.40;;
69053;SDS011;56125;52.242;4.756;2024-02-28T06:58:18;6.93;;;2.17;;
69053;SDS011;56125;52.242;4.756;2024-02-28T07:03:19;4.85;;;2.30;;
69053;SDS011;56125;52.242;4.756;2024-02-28T07:08:20;3.50;;;2.00;;
69053;SDS011;56125;52.242;4.756;2024-02-28T07:13:21;3.83;;;2.10;;
69053;SDS011;56125;52.242;4.756;2024-02-28T07:18:23;4.67;;;2.30;;
69053;SDS011;56125;52.242;4.756;2024-02-28T07:23:29;7.45;;;2.20;;
69053;SDS011;56125;52.242;4.756;2024-02-28T07:28:31;3.30;;;2.30;;
69053;SDS011;56125;52.242;4.756;2024-02-28T07:33:32;7.70;;;2.38;;
69053;SDS011;56125;52.242;4.756;2024-02-28T07:38:33;3.07;;;2.20;;
69053;SDS011;56125;52.242;4.756;2024-02-28T07:43:35;3.10;;;2.20;;
69053;SDS011;56125;52.242;4.756;2024-02-28T07:48:39;3.30;;;2.30;;
69053;SDS011;56125;52.242;4.756;2024-02-28T07:53:40;2.42;;;2.20;;
69053;SDS011;56125;52.242;4.756;2024-02-28T07:58:41;2.40;;;2.00;;
69053;SDS011;56125;52.242;4.756;2024-02-28T08:03:42;2.60;;;2.10;;
69053;SDS011;56125;52.242;4.756;2024-02-28T08:08:44;5.90;;;2.53;;
69053;SDS011;56125;52.242;4.756;2024-02-28T08:13:47;4.03;;;2.53;;
69053;SDS011;56125;52.242;4.756;2024-02-28T08:18:48;3.67;;;2.17;;
69053;SDS011;56125;52.242;4.756;2024-02-28T08:23:49;3.53;;;2.10;;
69053;SDS011;56125;52.242;4.756;2024-02-28T08:28:50;3.00;;;2.13;;
69053;SDS011;56125;52.242;4.756;2024-02-28T08:33:51;3.88;;;2.20;;
69053;SDS011;56125;52.242;4.756;2024-02-28T08:38:52;3.13;;;1.90;;
69053;SDS011;56125;52.242;4.756;2024-02-28T08:43:53;3.35;;;2.10;;
69053;SDS011;56125;52.242;4.756;2024-02-28T08:48:54;4.33;;;2.40;;
69053;SDS011;56125;52.242;4.756;2024-02-28T08:53:55;3.95;;;2.40;;
69053;SDS011;56125;52.242;4.756;2024-02-28T08:59:00;4.20;;;3.10;;
69053;SDS011;56125;52.242;4.756;2024-02-28T09:04:01;3.15;;;2.20;;
69053;SDS011;56125;52.242;4.756;2024-02-28T09:09:02;4.47;;;1.93;;
69053;SDS011;56125;52.242;4.756;2024-02-28T09:14:04;7.38;;;2.38;;
69053;SDS011;56125;52.242;4.756;2024-02-28T09:19:05;4.13;;;1.90;;
69053;SDS011;56125;52.242;4.756;2024-02-28T09:24:06;3.95;;;2.30;;
69053;SDS011;56125;52.242;4.756;2024-02-28T09:29:07;2.60;;;2.00;;
69053;SDS011;56125;52.242;4.756;2024-02-28T09:34:08;3.35;;;2.40;;
69053;SDS011;56125;52.242;4.756;2024-02-28T09:39:10;3.00;;;2.30;;
69053;SDS011;56125;52.242;4.756;2024-02-28T09:44:18;4.60;;;2.22;;
69053;SDS011;56125;52.242;4.756;2024-02-28T09:49:21;3.37;;;2.30;;
69053;SDS011;56125;52.242;4.756;2024-02-28T09:54:25;2.60;;;2.00;;
69053;SDS011;56125;52.242;4.756;2024-02-28T09:59:26;5.30;;;2.87;;
69053;SDS011;56125;52.242;4.756;2024-02-28T10:04:27;6.65;;;3.65;;
69053;SDS011;56125;52.242;4.756;2024-02-28T10:09:29;6.47;;;3.53;;
69053;SDS011;56125;52.242;4.756;2024-02-28T10:14:30;6.22;;;2.78;;
69053;SDS011;56125;52.242;4.756;2024-02-28T10:19:31;3.87;;;2.40;;
69053;SDS011;56125;52.242;4.756;2024-02-28T10:24:35;3.80;;;2.50;;
69053;SDS011;56125;52.242;4.756;2024-02-28T10:29:38;6.20;;;2.80;;
69053;SDS011;56125;52.242;4.756;2024-02-28T10:34:39;6.18;;;3.05;;
69053;SDS011;56125;52.242;4.756;2024-02-28T10:39:41;3.33;;;2.70;;
69053;SDS011;56125;52.242;4.756;2024-02-28T10:44:43;3.53;;;2.90;;
69053;SDS011;56125;52.242;4.756;2024-02-28T10:49:45;6.33;;;3.50;;
69053;SDS011;56125;52.242;4.756;2024-02-28T10:54:46;6.32;;;3.60;;
69053;SDS011;56125;52.242;4.756;2024-02-28T10:59:56;4.10;;;2.40;;
69053;SDS011;56125;52.242;4.756;2024-02-28T11:04:59;3.28;;;2.60;;
69053;SDS011;56125;52.242;4.756;2024-02-28T11:10:05;3.27;;;2.40;;
69053;SDS011;56125;52.242;4.756;2024-02-28T11:15:15;5.07;;;2.83;;
69053;SDS011;56125;52.242;4.756;2024-02-28T11:20:17;4.43;;;2.50;;
69053;SDS011;56125;52.242;4.756;2024-02-28T11:25:19;3.90;;;2.35;;
69053;SDS011;56125;52.242;4.756;2024-02-28T11:30:21;3.27;;;2.40;;
69053;SDS011;56125;52.242;4.756;2024-02-28T11:35:22;4.43;;;2.42;;
69053;SDS011;56125;52.242;4.756;2024-02-28T11:40:24;4.20;;;2.37;;
69053;SDS011;56125;52.242;4.756;2024-02-28T11:45:28;3.45;;;2.75;;
69053;SDS011;56125;52.242;4.756;2024-02-28T11:50:30;2.60;;;1.93;;
69053;SDS011;56125;52.242;4.756;2024-02-28T11:55:31;4.70;;;2.38;;
69053;SDS011;56125;52.242;4.756;2024-02-28T12:00:32;3.70;;;2.00;;
69053;SDS011;56125;52.242;4.756;2024-02-28T12:05:33;4.80;;;2.60;;
69053;SDS011;56125;52.242;4.756;2024-02-28T12:10:38;3.53;;;2.00;;
69053;SDS011;56125;52.242;4.756;2024-02-28T12:15:39;3.45;;;2.30;;
69053;SDS011;56125;52.242;4.756;2024-02-28T12:20:41;5.60;;;1.77;;
69053;SDS011;56125;52.242;4.756;2024-02-28T12:25:42;3.90;;;2.30;;
69053;SDS011;56125;52.242;4.756;2024-02-28T12:30:43;2.87;;;1.70;;
69053;SDS011;56125;52.242;4.756;2024-02-28T12:35:44;3.55;;;2.00;;
69053;SDS011;56125;52.242;4.756;2024-02-28T12:40:45;4.40;;;1.90;;
69053;SDS011;56125;52.242;4.756;2024-02-28T12:45:47;2.60;;;1.92;;
69053;SDS011;56125;52.242;4.756;2024-02-28T12:50:48;2.90;;;1.80;;
69053;SDS011;56125;52.242;4.756;2024-02-28T12:55:49;4.15;;;2.28;;
69053;SDS011;56125;52.242;4.756;2024-02-28T13:00:50;3.87;;;2.30;;
69053;SDS011;56125;52.242;4.756;2024-02-28T13:05:51;2.75;;;1.90;;
69053;SDS011;56125;52.242;4.756;2024-02-28T13:10:52;2.40;;;1.80;;
69053;SDS011;56125;52.242;4.756;2024-02-28T13:15:53;3.85;;;2.10;;
69053;SDS011;56125;52.242;4.756;2024-02-28T13:20:54;3.57;;;2.00;;
69053;SDS011;56125;52.242;4.756;2024-02-28T13:25:55;4.97;;;2.60;;
69053;SDS011;56125;52.242;4.756;2024-02-28T13:30:59;4.37;;;2.83;;
69053;SDS011;56125;52.242;4.756;2024-02-28T13:36:01;6.00;;;3.20;;
69053;SDS011;56125;52.242;4.756;2024-02-28T13:41:03;8.40;;;3.60;;
69053;SDS011;56125;52.242;4.756;2024-02-28T13:46:04;6.05;;;3.45;;
69053;SDS011;56125;52.242;4.756;2024-02-28T13:51:05;5.57;;;3.33;;
69053;SDS011;56125;52.242;4.756;2024-02-28T13:56:06;5.90;;;3.92;;
69053;SDS011;56125;52.242;4.756;2024-02-28T14:01:07;7.40;;;4.00;;
69053;SDS011;56125;52.242;4.756;2024-02-28T14:06:09;7.32;;;4.00;;
69053;SDS011;56125;52.242;4.756;2024-02-28T14:11:10;6.07;;;4.20;;
69053;SDS011;56125;52.242;4.756;2024-02-28T14:16:12;7.82;;;4.60;;
69053;SDS011;56125;52.242;4.756;2024-02-28T14:21:13;6.10;;;3.80;;
69053;SDS011;56125;52.242;4.756;2024-02-28T14:26:14;7.13;;;4.25;;
69053;SDS011;56125;52.242;4.756;2024-02-28T14:31:15;6.37;;;4.13;;
69053;SDS011;56125;52.242;4.756;2024-02-28T14:36:16;8.57;;;4.70;;
69053;SDS011;56125;52.242;4.756;2024-02-28T14:41:17;7.73;;;4.33;;
69053;SDS011;56125;52.242;4.756;2024-02-28T14:46:18;12.75;;;4.43;;
69053;SDS011;56125;52.242;4.756;2024-02-28T14:51:21;11.77;;;4.43;;
69053;SDS011;56125;52.242;4.756;2024-02-28T14:56:22;7.93;;;4.90;;
69053;SDS011;56125;52.242;4.756;2024-02-28T15:01:23;9.17;;;4.50;;
69053;SDS011;56125;52.242;4.756;2024-02-28T15:06:25;7.05;;;3.97;;
69053;SDS011;56125;52.242;4.756;2024-02-28T15:11:26;6.30;;;3.83;;
69053;SDS011;56125;52.242;4.756;2024-02-28T15:16:27;6.68;;;4.18;;
69053;SDS011;56125;52.242;4.756;2024-02-28T15:21:28;10.23;;;4.47;;
69053;SDS011;56125;52.242;4.756;2024-02-28T15:26:29;6.68;;;4.30;;
69053;SDS011;56125;52.242;4.756;2024-02-28T15:31:30;7.07;;;4.50;;
69053;SDS011;56125;52.242;4.756;2024-02-28T15:36:31;5.40;;;4.40;;
69053;SDS011;56125;52.242;4.756;2024-02-28T15:41:33;6.43;;;4.67;;
69053;SDS011;56125;52.242;4.756;2024-02-28T15:46:34;7.15;;;4.88;;
69053;SDS011;56125;52.242;4.756;2024-02-28T15:51:36;7.80;;;4.60;;
69053;SDS011;56125;52.242;4.756;2024-02-28T15:56:37;8.75;;;4.90;;
69053;SDS011;56125;52.242;4.756;2024-02-28T16:01:40;7.60;;;5.07;;
69053;SDS011;56125;52.242;4.756;2024-02-28T16:06:41;7.82;;;4.95;;
69053;SDS011;56125;52.242;4.756;2024-02-28T16:11:43;7.00;;;4.50;;
69053;SDS011;56125;52.242;4.756;2024-02-28T16:16:44;6.80;;;4.28;;
69053;SDS011;56125;52.242;4.756;2024-02-28T16:21:45;5.00;;;3.43;;
69053;SDS011;56125;52.242;4.756;2024-02-28T16:26:49;4.00;;;3.47;;
69053;SDS011;56125;52.242;4.756;2024-02-28T16:31:50;7.87;;;3.93;;
69053;SDS011;56125;52.242;4.756;2024-02-28T16:36:51;4.18;;;3.30;;
69053;SDS011;56125;52.242;4.756;2024-02-28T16:41:52;5.37;;;4.03;;
69053;SDS011;56125;52.242;4.756;2024-02-28T16:46:53;4.45;;;3.00;;
69053;SDS011;56125;52.242;4.756;2024-02-28T16:51:54;4.90;;;3.17;;
69053;SDS011;56125;52.242;4.756;2024-02-28T16:56:55;4.82;;;3.30;;
69053;SDS011;56125;52.242;4.756;2024-02-28T17:01:56;4.47;;;3.40;;
69053;SDS011;56125;52.242;4.756;2024-02-28T17:06:58;4.95;;;3.10;;
69053;SDS011;56125;52.242;4.756;2024-02-28T17:11:59;4.57;;;3.13;;
69053;SDS011;56125;52.242;4.756;2024-02-28T17:17:00;4.35;;;2.90;;
69053;SDS011;56125;52.242;4.756;2024-02-28T17:22:01;3.43;;;2.90;;
69053;SDS011;56125;52.242;4.756;2024-02-28T17:27:02;3.85;;;2.60;;
69053;SDS011;56125;52.242;4.756;2024-02-28T17:32:03;3.63;;;2.97;;
69053;SDS011;56125;52.242;4.756;2024-02-28T17:37:05;3.67;;;2.70;;
69053;SDS011;56125;52.242;4.756;2024-02-28T17:42:06;3.43;;;2.70;;
69053;SDS011;56125;52.242;4.756;2024-02-28T17:47:07;4.25;;;2.97;;
69053;SDS011;56125;52.242;4.756;2024-02-28T17:52:08;4.73;;;3.27;;
69053;SDS011;56125;52.242;4.756;2024-02-28T17:57:09;3.92;;;3.13;;
69053;SDS011;56125;52.242;4.756;2024-02-28T18:02:11;6.00;;;3.40;;
69053;SDS011;56125;52.242;4.756;2024-02-28T18:07:12;4.25;;;3.08;;
69053;SDS011;56125;52.242;4.756;2024-02-28T18:12:14;3.77;;;2.80;;
69053;SDS011;56125;52.242;4.756;2024-02-28T18:17:15;3.22;;;2.67;;
69053;SDS011;56125;52.242;4.756;2024-02-28T18:22:16;4.97;;;2.80;;
69053;SDS011;56125;52.242;4.756;2024-02-28T18:27:17;4.80;;;3.30;;
69053;SDS011;56125;52.242;4.756;2024-02-28T18:32:19;12.05;;;3.40;;
69053;SDS011;56125;52.242;4.756;2024-02-28T18:37:20;4.38;;;3.15;;
69053;SDS011;56125;52.242;4.756;2024-02-28T18:42:21;5.10;;;2.83;;
69053;SDS011;56125;52.242;4.756;2024-02-28T18:47:22;4.47;;;2.75;;
69053;SDS011;56125;52.242;4.756;2024-02-28T18:52:24;3.95;;;2.75;;
69053;SDS011;56125;52.242;4.756;2024-02-28T18:57:25;4.68;;;2.63;;
69053;SDS011;56125;52.242;4.756;2024-02-28T19:02:26;4.32;;;2.55;;
69053;SDS011;56125;52.242;4.756;2024-02-28T19:07:28;3.10;;;2.50;;
69053;SDS011;56125;52.242;4.756;2024-02-28T19:12:29;3.38;;;2.40;;
69053;SDS011;56125;52.242;4.756;2024-02-28T19:17:31;3.58;;;2.10;;
69053;SDS011;56125;52.242;4.756;2024-02-28T19:22:32;2.53;;;2.05;;
69053;SDS011;56125;52.242;4.756;2024-02-28T19:27:34;2.85;;;2.03;;
69053;SDS011;56125;52.242;4.756;2024-02-28T19:32:36;2.70;;;1.95;;
69053;SDS011;56125;52.242;4.756;2024-02-28T19:37:39;3.05;;;1.83;;
69053;SDS011;56125;52.242;4.756;2024-02-28T19:42:41;3.75;;;2.03;;
69053;SDS011;56125;52.242;4.756;2024-02-28T19:47:42;3.33;;;2.08;;
69053;SDS011;56125;52.242;4.756;2024-02-28T19:52:45;3.30;;;1.80;;
69053;SDS011;56125;52.242;4.756;2024-02-28T19:57:47;2.72;;;1.88;;
69053;SDS011;56125;52.242;4.756;2024-02-28T20:02:48;2.85;;;1.85;;
69053;SDS011;56125;52.242;4.756;2024-02-28T20:07:49;3.50;;;2.00;;
69053;SDS011;56125;52.242;4.756;2024-02-28T20:12:50;3.10;;;2.10;;
69053;SDS011;56125;52.242;4.756;2024-02-28T20:17:52;3.47;;;2.20;;
69053;SDS011;56125;52.242;4.756;2024-02-28T20:22:53;3.17;;;2.03;;
69053;SDS011;56125;52.242;4.756;2024-02-28T20:27:54;3.30;;;1.97;;
69053;SDS011;56125;52.242;4.756;2024-02-28T20:32:55;4.18;;;1.92;;
69053;SDS011;56125;52.242;4.756;2024-02-28T20:37:56;4.53;;;1.83;;
69053;SDS011;56125;52.242;4.756;2024-02-28T20:42:58;4.88;;;1.90;;
69053;SDS011;56125;52.242;4.756;2024-02-28T20:48:01;2.83;;;2.20;;
69053;SDS011;56125;52.242;4.756;2024-02-28T20:53:02;2.78;;;1.88;;
69053;SDS011;56125;52.242;4.756;2024-02-28T20:58:03;2.70;;;1.97;;
69053;SDS011;56125;52.242;4.756;2024-02-28T21:03:04;2.75;;;1.90;;
69053;SDS011;56125;52.242;4.756;2024-02-28T21:08:05;3.20;;;2.00;;
69053;SDS011;56125;52.242;4.756;2024-02-28T21:13:06;3.00;;;2.00;;
69053;SDS011;56125;52.242;4.756;2024-02-28T21:18:08;2.70;;;1.87;;
69053;SDS011;56125;52.242;4.756;2024-02-28T21:23:09;3.22;;;1.92;;
69053;SDS011;56125;52.242;4.756;2024-02-28T21:28:10;2.37;;;1.80;;
69053;SDS011;56125;52.242;4.756;2024-02-28T21:33:11;2.45;;;1.80;;
69053;SDS011;56125;52.242;4.756;2024-02-28T21:38:12;2.20;;;1.70;;
69053;SDS011;56125;52.242;4.756;2024-02-28T21:43:13;2.78;;;1.80;;
69053;SDS011;56125;52.242;4.756;2024-02-28T21:48:14;1.90;;;1.70;;
69053;SDS011;56125;52.242;4.756;2024-02-28T21:53:15;1.98;;;1.58;;
69053;SDS011;56125;52.242;4.756;2024-02-28T21:58:16;2.90;;;1.80;;
69053;SDS011;56125;52.242;4.756;2024-02-28T22:03:18;2.38;;;1.58;;
69053;SDS011;56125;52.242;4.756;2024-02-28T22:08:20;2.70;;;1.53;;
69053;SDS011;56125;52.242;4.756;2024-02-28T22:13:21;2.70;;;1.58;;
69053;SDS011;56125;52.242;4.756;2024-02-28T22:18:22;2.20;;;1.60;;
69053;SDS011;56125;52.242;4.756;2024-02-28T22:23:23;1.98;;;1.50;;
69053;SDS011;56125;52.242;4.756;2024-02-28T22:28:24;2.43;;;1.83;;
69053;SDS011;56125;52.242;4.756;2024-02-28T22:33:25;4.25;;;1.70;;
69053;SDS011;56125;52.242;4.756;2024-02-28T22:38:26;2.47;;;1.80;;
69053;SDS011;56125;52.242;4.756;2024-02-28T22:43:27;1.98;;;1.45;;
69053;SDS011;56125;52.242;4.756;2024-02-28T22:48:28;2.23;;;1.63;;
69053;SDS011;56125;52.242;4.756;2024-02-28T22:53:29;2.45;;;1.63;;
69053;SDS011;56125;52.242;4.756;2024-02-28T22:58:30;2.13;;;1.60;;
69053;SDS011;56125;52.242;4.756;2024-02-28T23:03:31;3.05;;;1.60;;
69053;SDS011;56125;52.242;4.756;2024-02-28T23:08:33;2.57;;;1.80;;
69053;SDS011;56125;52.242;4.756;2024-02-28T23:13:34;4.72;;;1.80;;
69053;SDS011;56125;52.242;4.756;2024-02-28T23:18:35;4.17;;;1.90;;
69053;SDS011;56125;52.242;4.756;2024-02-28T23:23:36;2.78;;;2.10;;
69053;SDS011;56125;52.242;4.756;2024-02-28T23:28:37;3.20;;;1.70;;
69053;SDS011;56125;52.242;4.756;2024-02-28T23:33:38;3.15;;;2.08;;
69053;SDS011;56125;52.242;4.756;2024-02-28T23:38:39;2.23;;;1.80;;
69053;SDS011;56125;52.242;4.756;2024-02-28T23:43:41;2.45;;;1.80;;
69053;SDS011;56125;52.242;4.756;2024-02-28T23:48:42;2.87;;;2.00;;
69053;SDS011;56125;52.242;4.756;2024-02-28T23:53:43;3.30;;;1.77;;
69053;SDS011;56125;52.242;4.756;2024-02-28T23:58:44;2.93;;;2.30;;
